createdAt,value
2018-09-06T00:01:57.363Z,46.23
2018-09-06T00:04:26.630Z,43.30
2018-09-06T00:06:57.766Z,42.97
2018-09-06T00:09:27.403Z,43.50
2018-09-06T00:12:04.204Z,42.70
2018-09-06T00:14:33.510Z,42.30
2018-09-06T00:17:03.737Z,40.70
2018-09-06T00:19:33.108Z,41.57
2018-09-06T00:22:06.314Z,41.70
2018-09-06T00:24:35.569Z,41.70
2018-09-06T00:27:09.431Z,43.40
2018-09-06T00:29:38.676Z,41.90
2018-09-06T00:32:12.595Z,40.77
2018-09-06T00:34:42.405Z,42.20
2018-09-06T00:37:15.637Z,41.97
2018-09-06T00:39:44.972Z,42.73
2018-09-06T00:42:18.207Z,43.77
2018-09-06T00:44:47.699Z,43.83
2018-09-06T00:47:20.558Z,43.97
2018-09-06T00:49:49.989Z,45.43
2018-09-06T00:52:22.163Z,43.40
2018-09-06T00:54:52.457Z,44.43
2018-09-06T00:57:25.371Z,43.30
2018-09-06T00:59:55.077Z,43.27
2018-09-06T01:02:27.396Z,43.23
2018-09-06T01:04:56.827Z,43.63
2018-09-06T01:07:29.600Z,43.97
2018-09-06T01:09:59.342Z,44.20
2018-09-06T01:12:33.674Z,44.27
2018-09-06T01:15:03.206Z,43.87
2018-09-06T01:17:35.274Z,43.03
2018-09-06T01:20:04.781Z,44.13
2018-09-06T01:22:37.786Z,42.40
2018-09-06T01:25:08.418Z,41.80
2018-09-06T01:27:41.338Z,41.30
2018-09-06T01:30:10.589Z,40.67
2018-09-06T01:32:43.667Z,42.67
2018-09-06T01:35:12.950Z,44.37
2018-09-06T01:37:45.750Z,44.37
2018-09-06T01:40:15.562Z,44.03
2018-09-06T01:42:48.833Z,44.00
2018-09-06T01:45:18.107Z,46.00
2018-09-06T01:47:50.798Z,45.37
2018-09-06T01:50:20.419Z,44.93
2018-09-06T01:52:57.592Z,45.00
2018-09-06T01:55:27.251Z,43.40
2018-09-06T01:57:56.692Z,42.97
2018-09-06T02:00:26.662Z,43.50
2018-09-06T02:02:59.970Z,41.50
2018-09-06T02:05:35.717Z,43.40
2018-09-06T02:08:06.782Z,43.47
2018-09-06T02:10:36.279Z,43.47
2018-09-06T02:13:06.814Z,43.77
2018-09-06T02:15:36.423Z,41.73
2018-09-06T02:18:09.561Z,41.00
2018-09-06T02:20:38.843Z,41.27
2018-09-06T02:23:16.131Z,42.67
2018-09-06T02:25:45.899Z,41.93
2018-09-06T02:28:15.462Z,43.67
2018-09-06T02:30:45.523Z,42.10
2018-09-06T02:33:18.034Z,43.40
2018-09-06T02:35:47.812Z,46.27
2018-09-06T02:38:21.044Z,45.27
2018-09-06T02:40:50.446Z,43.73
2018-09-06T02:43:23.493Z,42.20
2018-09-06T02:45:53.361Z,44.83
2018-09-06T02:48:30.077Z,44.23
2018-09-06T02:51:05.030Z,42.77
2018-09-06T02:53:34.257Z,43.93
2018-09-06T02:56:03.762Z,41.47
2018-09-06T02:58:34.642Z,42.40
2018-09-06T03:01:04.184Z,42.73
2018-09-06T03:03:33.466Z,43.77
2018-09-06T03:06:03.373Z,42.00
2018-09-06T03:08:35.925Z,42.70
2018-09-06T03:11:21.797Z,41.57
2018-09-06T03:16:17.863Z,42.70
2018-09-06T03:18:47.329Z,41.27
2018-09-06T03:21:17.239Z,42.60
2018-09-06T03:23:46.560Z,41.90
2018-09-06T03:26:20.023Z,39.90
2018-09-06T03:28:51.396Z,42.63
2018-09-06T03:31:20.666Z,41.27
2018-09-06T03:33:50.248Z,43.73
2018-09-06T03:36:19.517Z,44.73
2018-09-06T03:38:51.578Z,42.70
2018-09-06T03:41:21.035Z,44.13
2018-09-06T03:43:54.196Z,44.30
2018-09-06T03:46:24.298Z,44.40
2018-09-06T03:48:57.604Z,44.03
2018-09-06T03:51:27.501Z,45.13
2018-09-06T03:54:04.473Z,45.13
2018-09-06T03:56:33.825Z,43.90
2018-09-06T03:59:05.549Z,44.60
2018-09-06T04:01:35.157Z,43.57
2018-09-06T04:04:08.263Z,42.13
2018-09-06T04:06:37.793Z,42.97
2018-09-06T04:09:15.129Z,43.17
2018-09-06T04:11:44.300Z,43.30
2018-09-06T04:14:14.518Z,43.03
2018-09-06T04:16:43.977Z,40.47
2018-09-06T04:33:43.477Z,39.00
2018-09-06T04:36:14.315Z,36.07
2018-09-06T04:38:43.633Z,36.90
2018-09-06T04:41:13.353Z,37.37
2018-09-06T04:43:43.373Z,37.27
2018-09-06T04:46:13.698Z,35.60
2018-09-06T04:48:43.051Z,37.63
2018-09-06T04:51:14.186Z,37.03
2018-09-06T04:53:43.777Z,35.87
2018-09-06T04:56:12.984Z,37.30
2018-09-06T04:58:42.549Z,37.63
2018-09-06T05:01:11.750Z,38.33
2018-09-06T05:03:41.050Z,38.83
2018-09-06T05:06:10.597Z,38.60
2018-09-06T05:08:40.642Z,37.77
2018-09-06T05:11:10.478Z,38.03
2018-09-06T05:13:47.612Z,39.27
2018-09-06T05:16:16.930Z,39.03
2018-09-06T05:18:47.419Z,39.00
2018-09-06T05:21:16.998Z,36.87
2018-09-06T05:23:49.876Z,37.57
2018-09-06T05:26:19.162Z,36.10
2018-09-06T05:28:55.836Z,36.50
2018-09-06T05:31:25.082Z,36.80
2018-09-06T05:33:56.064Z,35.17
2018-09-06T05:36:25.712Z,35.27
2018-09-06T05:39:08.428Z,35.67
2018-09-06T05:41:38.285Z,35.00
2018-09-06T05:44:07.890Z,33.20
2018-09-06T05:46:37.484Z,33.17
2018-09-06T05:49:06.974Z,31.83
2018-09-06T05:51:36.539Z,33.70
2018-09-06T05:54:08.568Z,33.03
2018-09-06T05:56:37.956Z,32.30
2018-09-06T05:59:19.881Z,32.53
2018-09-06T06:01:49.422Z,31.10
2018-09-06T06:04:18.762Z,32.37
2018-09-06T06:06:48.180Z,35.30
2018-09-06T06:09:17.927Z,32.60
2018-09-06T06:11:47.417Z,32.10
2018-09-06T06:14:20.470Z,33.40
2018-09-06T06:16:50.220Z,33.60
2018-09-06T06:19:22.953Z,33.23
2018-09-06T06:21:52.244Z,34.23
2018-09-06T06:24:29.546Z,36.17
2018-09-06T06:26:58.877Z,37.03
2018-09-06T06:29:28.171Z,37.27
2018-09-06T06:31:57.764Z,39.30
2018-09-06T06:34:30.995Z,41.23
2018-09-06T06:37:00.660Z,41.23
2018-09-06T06:39:33.164Z,41.77
2018-09-06T06:42:02.451Z,41.83
2018-09-06T06:44:35.077Z,42.03
2018-09-06T06:47:04.770Z,41.50
2018-09-06T06:49:37.871Z,43.47
2018-09-06T06:52:07.353Z,41.63
2018-09-06T06:54:40.178Z,41.17
2018-09-06T06:57:09.531Z,43.10
2018-09-06T06:59:51.487Z,42.57
2018-09-06T07:02:21.088Z,39.27
2018-09-06T07:04:50.405Z,38.33
2018-09-06T07:07:19.661Z,37.87
2018-09-06T07:09:49.212Z,38.60
2018-09-06T07:12:18.497Z,39.37
2018-09-06T07:14:51.248Z,38.80
2018-09-06T07:17:20.564Z,38.33
2018-09-06T07:19:53.654Z,38.87
2018-09-06T07:22:22.950Z,40.40
2018-09-06T07:25:04.693Z,46.58
2018-09-06T07:27:34.464Z,38.47
2018-09-06T07:30:03.744Z,39.80
2018-09-06T07:32:33.094Z,38.60
2018-09-06T07:35:02.650Z,40.20
2018-09-06T07:37:31.934Z,37.30
2018-09-06T07:40:06.194Z,38.57
2018-09-06T07:42:35.489Z,37.37
2018-09-06T07:45:09.165Z,35.47
2018-09-06T07:47:39.983Z,36.30
2018-09-06T07:50:17.201Z,35.40
2018-09-06T07:52:46.759Z,37.90
2018-09-06T07:55:16.353Z,37.03
2018-09-06T07:57:46.486Z,36.23
2018-09-06T08:00:18.444Z,38.00
2018-09-06T08:02:48.097Z,37.27
2018-09-06T08:05:21.011Z,37.83
2018-09-06T08:07:51.727Z,35.87
2018-09-06T08:10:24.589Z,37.10
2018-09-06T08:12:53.897Z,37.87
2018-09-06T08:15:25.360Z,38.03
2018-09-06T08:17:54.649Z,36.93
2018-09-06T08:20:31.107Z,35.70
2018-09-06T08:23:01.065Z,35.37
2018-09-06T08:25:30.605Z,35.80
2018-09-06T08:27:59.965Z,36.40
2018-09-06T08:30:33.464Z,35.30
2018-09-06T08:33:02.801Z,33.80
2018-09-06T08:35:35.226Z,33.50
2018-09-06T08:38:04.922Z,33.73
2018-09-06T08:40:37.738Z,33.03
2018-09-06T08:43:07.208Z,32.73
2018-09-06T08:45:44.351Z,32.17
2018-09-06T08:48:13.709Z,30.47
2018-09-06T08:50:43.477Z,29.93
2018-09-06T08:53:13.203Z,30.77
2018-09-06T08:55:46.296Z,29.90
2018-09-06T08:58:15.625Z,30.53
2018-09-06T09:00:54.791Z,29.77
2018-09-06T09:03:24.128Z,30.63
2018-09-06T09:05:53.597Z,30.73
2018-09-06T09:08:23.018Z,31.53
2018-09-06T09:10:56.024Z,30.87
2018-09-06T09:13:26.065Z,29.20
2018-09-06T09:15:57.597Z,30.80
2018-09-06T09:18:27.008Z,31.30
2018-09-06T09:21:03.283Z,32.07
2018-09-06T09:23:32.717Z,32.47
2018-09-06T09:26:06.045Z,33.43
2018-09-06T09:28:35.370Z,32.57
2018-09-06T09:31:08.084Z,30.93
2018-09-06T09:33:37.815Z,32.73
2018-09-06T09:36:19.863Z,31.80
2018-09-06T09:38:49.489Z,33.40
2018-09-06T09:41:18.903Z,32.73
2018-09-06T09:43:48.333Z,33.43
2018-09-06T09:48:46.563Z,34.30
2018-09-06T09:51:19.254Z,33.80
2018-09-06T09:53:48.909Z,35.93
2018-09-06T09:56:21.399Z,36.43
2018-09-06T09:58:50.836Z,35.53
2018-09-06T10:01:28.192Z,37.43
2018-09-06T10:04:02.629Z,34.93
2018-09-06T10:06:36.976Z,36.40
2018-09-06T10:09:12.487Z,36.03
2018-09-06T10:11:42.040Z,36.53
2018-09-06T10:14:11.731Z,37.43
2018-09-06T10:16:41.111Z,39.27
2018-09-06T10:19:10.589Z,37.93
2018-09-06T10:21:40.194Z,38.63
2018-09-06T10:24:09.855Z,38.67
2018-09-06T10:26:39.443Z,37.97
2018-09-06T10:29:10.217Z,38.93
2018-09-06T10:31:39.795Z,38.97
2018-09-06T10:34:09.047Z,37.97
2018-09-06T10:36:42.191Z,36.33
2018-09-06T10:39:11.707Z,37.00
2018-09-06T10:41:45.791Z,39.40
2018-09-06T10:44:17.580Z,38.70
2018-09-06T10:46:47.165Z,39.07
2018-09-06T10:49:16.492Z,38.70
2018-09-06T10:51:50.221Z,34.53
2018-09-06T10:54:19.739Z,32.70
2018-09-06T10:56:52.687Z,32.07
2018-09-06T10:59:23.505Z,31.03
2018-09-06T11:01:55.888Z,29.63
2018-09-06T11:04:25.519Z,28.63
2018-09-06T11:07:02.336Z,29.50
2018-09-06T11:09:31.974Z,29.03
2018-09-06T11:12:01.332Z,28.77
2018-09-06T11:14:31.111Z,27.03
2018-09-06T11:17:05.037Z,28.27
2018-09-06T11:19:34.443Z,28.20
2018-09-06T11:22:11.254Z,27.67
2018-09-06T11:24:40.900Z,26.63
2018-09-06T11:27:13.373Z,27.93
2018-09-06T11:29:42.742Z,30.00
2018-09-06T11:32:15.336Z,29.47
2018-09-06T11:34:44.703Z,28.70
2018-09-06T11:37:17.357Z,30.97
2018-09-06T11:39:47.240Z,30.00
2018-09-06T11:42:18.052Z,29.33
2018-09-06T11:44:47.610Z,26.87
2018-09-06T11:47:24.942Z,25.80
2018-09-06T11:49:54.281Z,23.27
2018-09-06T11:52:23.882Z,24.13
2018-09-06T11:54:53.324Z,24.07
2018-09-06T11:57:26.218Z,25.07
2018-09-06T11:59:55.870Z,24.60
2018-09-06T12:07:15.375Z,25.17
2018-09-06T12:09:44.998Z,26.27
2018-09-06T12:12:14.407Z,25.37
2018-09-06T12:14:44.777Z,26.97
2018-09-06T12:17:14.557Z,28.30
2018-09-06T12:19:44.145Z,29.33
2018-09-06T12:22:13.956Z,28.93
2018-09-06T12:24:43.485Z,27.80
2018-09-06T12:27:13.273Z,29.13
2018-09-06T12:29:43.101Z,28.37
2018-09-06T12:32:12.504Z,28.60
2018-09-06T12:34:45.840Z,28.00
2018-09-06T12:37:15.817Z,30.20
2018-09-06T12:39:48.483Z,27.90
2018-09-06T12:42:17.962Z,25.73
2018-09-06T12:44:55.645Z,27.10
2018-09-06T12:47:25.248Z,28.13
2018-09-06T12:49:54.615Z,29.00
2018-09-06T12:52:24.346Z,28.03
2018-09-06T12:54:57.129Z,27.43
2018-09-06T12:57:26.686Z,28.20
2018-09-06T13:00:00.110Z,30.37
2018-09-06T13:02:29.851Z,29.43
2018-09-06T13:05:03.407Z,27.97
2018-09-06T13:07:33.144Z,27.27
2018-09-06T13:10:06.564Z,28.60
2018-09-06T13:12:35.985Z,27.30
2018-09-06T13:15:09.200Z,26.87
2018-09-06T13:17:39.726Z,26.70
2018-09-06T13:20:16.454Z,26.63
2018-09-06T13:22:45.822Z,26.03
2018-09-06T13:25:15.463Z,26.77
2018-09-06T13:27:44.762Z,24.67
2018-09-06T13:30:17.832Z,25.93
2018-09-06T13:32:47.215Z,25.37
2018-09-06T13:35:20.830Z,25.10
2018-09-06T13:37:50.793Z,25.87
2018-09-06T13:40:22.026Z,26.33
2018-09-06T13:42:51.428Z,26.23
2018-09-06T13:45:24.815Z,26.83
2018-09-06T13:47:54.661Z,24.53
2018-09-06T13:50:28.095Z,25.83
2018-09-06T13:52:57.930Z,23.30
2018-09-06T13:55:29.027Z,23.57
2018-09-06T13:57:58.420Z,23.87
2018-09-06T14:00:35.727Z,24.37
2018-09-06T14:03:05.095Z,25.37
2018-09-06T14:05:34.620Z,22.60
2018-09-06T14:08:04.392Z,23.23
2018-09-06T14:10:40.928Z,25.00
2018-09-06T14:13:10.251Z,25.43
2018-09-06T14:15:39.858Z,25.03
2018-09-06T14:18:09.260Z,23.87
2018-09-06T14:20:42.976Z,25.00
2018-09-06T14:23:12.742Z,24.97
2018-09-06T14:25:46.067Z,23.80
2018-09-06T14:28:15.571Z,24.33
2018-09-06T14:30:49.356Z,23.73
2018-09-06T14:33:19.870Z,24.57
2018-09-06T14:35:52.859Z,24.63
2018-09-06T14:38:22.270Z,24.93
2018-09-06T14:40:54.711Z,25.37
2018-09-06T14:43:24.079Z,26.73
2018-09-06T14:46:00.840Z,25.57
2018-09-06T14:48:30.509Z,29.30
2018-09-06T14:51:03.888Z,27.20
2018-09-06T14:53:33.917Z,26.93
2018-09-06T14:56:03.991Z,26.73
2018-09-06T14:58:33.444Z,28.13
2018-09-06T15:01:10.742Z,27.97
2018-09-06T15:03:40.412Z,20.35
2018-09-06T15:06:10.104Z,14.17
2018-09-06T15:08:39.527Z,12.30
2018-09-06T15:11:14.015Z,12.27
2018-09-06T15:13:43.384Z,12.60
2018-09-06T15:16:16.420Z,11.87
2018-09-06T15:18:46.040Z,12.23
2018-09-06T15:21:18.859Z,12.47
2018-09-06T15:23:48.305Z,12.50
2018-09-06T15:26:21.384Z,14.43
2018-09-06T15:28:51.220Z,13.67
2018-09-06T15:31:23.576Z,12.60
2018-09-06T15:33:53.060Z,12.63
2018-09-06T15:36:27.179Z,12.57
2018-09-06T15:38:56.892Z,11.23
2018-09-06T15:41:29.298Z,11.63
2018-09-06T15:43:58.854Z,11.47
2018-09-06T15:46:31.497Z,12.83
2018-09-06T15:49:01.385Z,11.97
2018-09-06T15:51:34.259Z,12.83
2018-09-06T15:54:03.601Z,12.47
2018-09-06T15:56:37.131Z,11.77
2018-09-06T15:59:06.509Z,12.27
2018-09-06T16:01:39.609Z,12.03
2018-09-06T16:04:09.455Z,13.20
2018-09-06T16:06:46.277Z,13.27
2018-09-06T16:09:15.821Z,13.33
2018-09-06T16:11:45.198Z,13.53
2018-09-06T16:14:14.517Z,14.75
2018-09-06T16:16:48.238Z,13.77
2018-09-06T16:19:17.599Z,13.97
2018-09-06T16:21:50.160Z,12.27
2018-09-06T16:24:19.452Z,12.90
2018-09-06T16:26:53.865Z,12.77
2018-09-06T16:29:23.552Z,12.70
2018-09-06T16:31:55.673Z,13.03
2018-09-06T16:34:26.083Z,16.10
2018-09-06T16:36:59.221Z,16.53
2018-09-06T16:39:29.502Z,15.40
2018-09-06T16:42:02.047Z,16.97
2018-09-06T16:44:32.354Z,19.33
2018-09-06T16:47:06.891Z,17.67
2018-09-06T16:49:36.233Z,18.80
2018-09-06T16:52:07.296Z,18.30
2018-09-06T16:54:36.924Z,18.07
2018-09-06T16:57:13.638Z,17.73
2018-09-06T16:59:43.038Z,19.20
2018-09-06T17:02:14.114Z,20.17
2018-09-06T17:04:43.477Z,19.30
2018-09-06T17:07:18.238Z,20.70
2018-09-06T17:09:47.620Z,20.43
2018-09-06T17:12:18.696Z,19.23
2018-09-06T17:14:48.323Z,20.23
2018-09-06T17:17:21.565Z,18.93
2018-09-06T17:19:51.156Z,19.23
2018-09-06T17:22:27.877Z,20.93
2018-09-06T17:24:57.687Z,20.70
2018-09-06T17:27:27.420Z,19.73
2018-09-06T17:29:56.792Z,19.73
2018-09-06T17:32:29.463Z,19.23
2018-09-06T17:34:59.923Z,19.60
2018-09-06T17:37:31.064Z,19.07
2018-09-06T17:40:00.387Z,18.63
2018-09-06T17:42:34.557Z,19.63
2018-09-06T17:45:04.022Z,19.20
2018-09-06T17:47:37.097Z,18.53
2018-09-06T17:50:07.252Z,18.33
2018-09-06T17:52:39.614Z,19.33
2018-09-06T17:55:08.914Z,19.03
2018-09-06T17:57:42.472Z,20.80
2018-09-06T18:00:11.816Z,19.43
2018-09-06T18:02:49.162Z,18.57
2018-09-06T18:05:18.695Z,18.27
2018-09-06T18:07:48.207Z,18.93
2018-09-06T18:10:17.542Z,18.90
2018-09-06T18:12:51.008Z,18.90
2018-09-06T18:15:20.588Z,18.67
2018-09-06T18:17:57.511Z,17.60
2018-09-06T18:20:27.251Z,16.43
2018-09-06T18:22:56.822Z,16.70
2018-09-06T18:25:26.241Z,17.67
2018-09-06T18:28:03.675Z,15.90
2018-09-06T18:30:33.240Z,15.47
2018-09-06T18:33:02.718Z,13.83
2018-09-06T18:35:32.492Z,12.90
2018-09-06T18:38:08.932Z,13.03
2018-09-06T18:40:38.392Z,11.57
2018-09-06T18:43:08.630Z,10.40
2018-09-06T18:45:38.022Z,9.80
2018-09-06T18:48:15.834Z,9.30
2018-09-06T18:50:45.794Z,8.73
2018-09-06T18:53:16.080Z,8.23
2018-09-06T18:55:46.721Z,8.30
2018-09-06T18:58:17.807Z,8.63
2018-09-06T19:00:47.228Z,7.77
2018-09-06T19:03:19.829Z,8.00
2018-09-06T19:05:49.172Z,7.13
2018-09-06T19:08:22.426Z,9.13
2018-09-06T19:10:52.226Z,8.83
2018-09-06T19:13:25.233Z,9.33
2018-09-06T19:15:54.627Z,7.60
2018-09-06T19:18:27.038Z,8.23
2018-09-06T19:20:56.402Z,8.67
2018-09-06T19:23:30.138Z,8.70
2018-09-06T19:25:59.869Z,9.53
2018-09-06T19:28:30.926Z,9.27
2018-09-06T19:31:00.389Z,8.87
2018-09-06T19:33:34.050Z,9.40
2018-09-06T19:36:03.412Z,9.17
2018-09-06T19:38:44.994Z,9.80
2018-09-06T19:41:14.434Z,8.80
2018-09-06T19:43:43.882Z,9.53
2018-09-06T19:46:13.310Z,7.87
2018-09-06T19:48:42.942Z,7.40
2018-09-06T19:51:12.381Z,8.20
2018-09-06T19:53:45.293Z,7.97
2018-09-06T19:56:14.944Z,8.53
2018-09-06T19:58:47.845Z,8.70
2018-09-06T20:01:17.435Z,8.03
2018-09-06T20:03:50.689Z,7.17
2018-09-06T20:06:20.073Z,8.03
2018-09-06T20:08:52.776Z,7.70
2018-09-06T20:11:22.531Z,8.23
2018-09-06T20:13:55.584Z,8.33
2018-09-06T20:16:25.028Z,8.13
2018-09-06T20:18:58.420Z,6.73
2018-09-06T20:21:27.811Z,8.60
2018-09-06T20:24:04.633Z,8.23
2018-09-06T20:26:34.514Z,7.40
2018-09-06T20:29:17.058Z,7.50
2018-09-06T20:31:46.691Z,7.93
2018-09-06T20:34:15.961Z,8.73
2018-09-06T20:36:45.313Z,8.80
2018-09-06T20:39:15.042Z,8.13
2018-09-06T20:41:44.398Z,8.70
2018-09-06T20:44:13.750Z,8.50
2018-09-06T20:46:43.375Z,8.10
2018-09-06T20:49:15.696Z,8.33
2018-09-06T20:51:45.056Z,7.60
2018-09-06T20:54:18.346Z,7.87
2018-09-06T20:56:47.820Z,7.50
2018-09-06T20:59:20.798Z,7.90
2018-09-06T21:01:51.091Z,6.83
2018-09-06T21:04:22.402Z,6.43
2018-09-06T21:06:51.857Z,6.77
2018-09-06T21:09:25.386Z,8.23
2018-09-06T21:11:54.829Z,7.07
2018-09-06T21:14:27.869Z,7.73
2018-09-06T21:16:57.159Z,8.07
2018-09-06T21:19:31.315Z,8.57
2018-09-06T21:22:01.394Z,8.50
2018-09-06T21:24:33.018Z,8.27
2018-09-06T21:27:02.357Z,10.90
2018-09-06T21:29:39.492Z,8.93
2018-09-06T21:32:08.902Z,9.80
2018-09-06T21:34:38.372Z,9.43
2018-09-06T21:37:08.243Z,10.90
2018-09-06T21:39:41.122Z,9.83
2018-09-06T21:42:10.472Z,10.63
2018-09-06T21:44:43.543Z,9.67
2018-09-06T21:47:12.943Z,10.90
2018-09-06T21:49:45.920Z,10.63
2018-09-06T21:52:15.272Z,9.93
2018-09-06T21:54:48.562Z,11.53
2018-09-06T21:57:18.229Z,10.87
2018-09-06T21:59:51.658Z,11.00
2018-09-06T22:02:25.972Z,11.70
2018-09-06T22:04:55.829Z,11.73
2018-09-06T22:07:25.361Z,11.53
2018-09-06T22:09:58.418Z,10.30
2018-09-06T22:12:29.126Z,9.77
2018-09-06T22:15:00.586Z,9.67
2018-09-06T22:17:29.874Z,9.33
2018-09-06T22:20:03.282Z,10.60
2018-09-06T22:22:32.658Z,9.73
2018-09-06T22:25:09.178Z,9.90
2018-09-06T22:27:38.811Z,9.53
2018-09-06T22:30:08.666Z,8.57
2018-09-06T22:32:37.947Z,8.93
2018-09-06T22:35:13.528Z,8.00
2018-09-06T22:37:42.839Z,7.57
2018-09-06T22:40:14.988Z,7.83
2018-09-06T22:42:44.282Z,7.23
2018-09-06T22:45:16.960Z,7.53
2018-09-06T22:47:47.049Z,8.20
2018-09-06T22:50:19.276Z,6.73
2018-09-06T22:52:48.570Z,7.03
2018-09-06T22:55:22.322Z,7.13
2018-09-06T22:57:51.870Z,7.37
2018-09-06T23:00:28.513Z,6.50
2018-09-06T23:03:03.958Z,7.83
2018-09-06T23:05:34.000Z,7.73
2018-09-06T23:08:03.617Z,7.27
2018-09-06T23:10:33.082Z,7.87
2018-09-06T23:13:02.358Z,7.13
2018-09-06T23:15:32.023Z,6.50
2018-09-06T23:18:01.578Z,7.57
2018-09-06T23:20:34.624Z,7.40
2018-09-06T23:23:04.290Z,6.93
2018-09-06T23:25:37.167Z,8.07
2018-09-06T23:28:06.670Z,7.03
2018-09-06T23:30:39.823Z,5.63
2018-09-06T23:33:09.373Z,5.87
2018-09-06T23:35:45.031Z,6.93
2018-09-06T23:38:16.553Z,6.97
2018-09-06T23:40:51.764Z,6.67
2018-09-06T23:43:21.856Z,6.00
2018-09-06T23:45:56.446Z,6.00
2018-09-06T23:48:26.795Z,6.43
2018-09-06T23:50:56.876Z,6.17
2018-09-06T23:53:27.352Z,6.40
2018-09-06T23:55:56.629Z,5.63
2018-09-06T23:58:25.909Z,6.20
